東京国際空港の過去48時間の天気

東京国際空港 (Tokyo/Intl)

現在時刻: 5/21 14:34 JST (5/21 05:34 UTC) 以下の時間は現地時間です。

過去48時間のMETAR気象情報
時間 風向 風速(m/s) 視程 気温(℃) 湿度(%) 気圧(hPa) 天気現象
21 14:17 11 2500m 21 100 1000 しゅう雨 もや
21 14:08 10 2300m 21 100 1000 しゅう雨 もや
21 14:00 9 2300m 21 94 1000 しゅう雨 もや
21 13:50 9 2300m 21 100 1000 しゅう雨 もや
21 13:34 11 2000m 21 94 1000 強いしゅう雨 もや
21 13:27 10 2800m 21 94 1000 強いしゅう雨 もや
21 13:13 11 4000m 21 94 1000 しゅう雨 もや
21 13:00 11 4000m 21 94 1000 しゅう雨 もや
21 12:30 12 4000m 21 94 1000 しゅう雨 もや
21 12:16 11 4500m 21 94 1000 しゅう雨 もや
21 12:07 12 4500m 21 94 1000 弱いしゅう雨 もや
21 11:30 12 4500m 21 94 1001 しゅう雨 もや
21 11:00 13 4500m 21 94 1001 しゅう雨 もや
21 10:30 13 4500m 21 94 1001 しゅう雨 もや
21 10:12 14 5000m 21 94 1000 弱いしゅう雨 もや
21 10:00 14 8000m 21 94 1000 弱いしゅう雨
21 09:44 13 6000m 21 94 1001 弱いしゅう雨
21 09:30 南南東 13 4500m 21 94 1001 弱いしゅう雨 もや
21 09:13 南南東 14 6000m 21 94 1001 弱いしゅう雨
21 09:00 南南東 14 4000m 21 94 1001 弱いしゅう雨 もや
21 08:30 南南東 12 4000m 20 100 1002 しゅう雨 もや
21 08:00 南南東 10 4500m 20 94 1002 しゅう雨 もや
21 07:37 南南東 10 3500m 20 94 1003 しゅう雨 もや
21 07:00 南東 6 4000m 20 94 1003 しゅう雨 もや
21 06:34 南南東 7 2500m 20 94 1004 強いしゅう雨 もや
21 06:16 南南東 5 6000m 20 94 1004 しゅう雨 もや
21 06:08 南東 5 6000m 20 94 1004 弱いしゅう雨 もや
21 06:00 南東 5 6000m 20 94 1004 弱いしゅう雨
21 05:30 南東 6 4000m 20 94 1004 弱いしゅう雨 もや
21 05:00 南東 7 8000m 20 94 1005 弱いしゅう雨
21 04:45 南東 8 5000m 19 100 1005 弱いしゅう雨 もや
21 04:34 南南東 8 4000m 20 88 1005 弱いしゅう雨 もや
21 04:20 南南東 9 6000m 20 88 1006 弱いしゅう雨
21 04:00 南南東 9 10km以上 20 88 1006 弱いしゅう雨
21 03:30 南南東 10 8000m 20 88 1006 周辺でしゅう雨
21 03:04 南東 8 4000m 19 94 1006 弱いしゅう雨 もや
21 03:00 南東 8 7000m 19 94 1006 弱いしゅう雨
21 02:30 南東 7 10km以上 19 100 1007 弱いしゅう雨
21 02:00 南東 7 6000m 19 94 1008 弱いしゅう雨
21 01:46 南南東 7 5000m 19 94 1008 弱いしゅう雨 もや
21 01:30 南南東 7 4000m 19 94 1009 弱いしゅう雨 もや
21 01:22 南南東 8 4500m 19 94 1009 弱いしゅう雨 もや
21 01:15 南南東 8 6000m 19 94 1009 弱いしゅう雨 もや
21 01:00 南南東 7 10km以上 20 88 1009 弱いしゅう雨
21 00:30 南南東 7 10km以上 20 83 1010 弱いしゅう雨
21 00:00 南南東 6 10km以上 20 83 1010 弱いしゅう雨
20 23:30 南南東 7 10km以上 20 83 1011
20 23:00 南南東 7 10km以上 20 83 1011 弱いしゅう雨
20 22:30 南南東 8 10km以上 20 83 1011 弱いしゅう雨
20 22:00 南南東 7 10km以上 20 83 1012 弱いしゅう雨
20 21:30 南南東 7 10km以上 20 83 1012 弱いしゅう雨
20 21:00 南東 6 10km以上 20 83 1013 弱いしゅう雨
20 20:30 南南東 7 10km以上 20 83 1013 周辺でしゅう雨
20 20:00 南南東 6 10km以上 20 78 1013 周辺でしゅう雨
20 19:30 6 10km以上 20 78 1013
20 19:00 8 10km以上 21 73 1013
20 18:30 7 10km以上 21 73 1013
20 18:00 9 10km以上 21 73 1013 弱いしゅう雨
20 17:30 7 10km以上 22 69 1013 弱いしゅう雨
20 17:00 6 10km以上 22 69 1013
20 16:30 6 10km以上 22 65 1014
20 16:00 7 10km以上 21 73 1014
20 15:30 9 10km以上 21 73 1014 弱いしゅう雨
20 15:00 7 10km以上 23 61 1014
20 14:30 5 10km以上 22 69 1014
20 14:00 南南東 5 10km以上 23 65 1015
20 13:30 7 10km以上 21 73 1015 弱いしゅう雨
20 13:00 6 10km以上 24 57 1015
20 12:30 5 10km以上 24 57 1016
20 12:00 南南東 7 10km以上 22 57 1016
20 11:42 南南東 12 10km以上 21 64 1017
20 11:30 7 10km以上 23 57 1017
20 11:00 6 10km以上 23 53 1017
20 10:30 5 10km以上 24 54 1017
20 10:00 5 10km以上 23 53 1017
20 09:30 南東 5 10km以上 23 57 1017
20 09:00 東南東 4 10km以上 22 69 1017
20 08:30 東南東 4 10km以上 21 73 1017
20 08:00 東南東 5 10km以上 21 73 1018
20 07:30 南東 3 10km以上 20 78 1018
20 07:00 南東 3 10km以上 19 78 1019
20 06:30 南東 3 10km以上 19 83 1019
20 06:00 東南東 2 10km以上 19 83 1019
20 05:30 南東 3 10km以上 18 88 1019
20 05:00 東南東 5 10km以上 18 88 1019
20 04:30 東南東 4 10km以上 18 88 1019
20 04:00 南東 4 10km以上 18 88 1019
20 03:30 東南東 4 10km以上 18 88 1019
20 03:00 東南東 5 10km以上 19 83 1019
20 02:30 南南東 4 10km以上 18 83 1019
20 02:00 2 10km以上 17 83 1019
20 01:30 南東 2 10km以上 18 83 1020
20 01:00 南南東 3 10km以上 18 77 1020
20 00:30 南南東 3 10km以上 18 77 1020
20 00:00 南東 5 10km以上 18 83 1021
19 23:30 南東 4 10km以上 18 83 1021
19 23:00 南南東 4 10km以上 18 77 1021
19 22:30 南南東 3 10km以上 17 83 1022
19 22:00 南南東 4 10km以上 18 77 1022
19 21:30 南東 4 10km以上 19 78 1022
19 21:00 5 10km以上 19 73 1022
19 20:30 4 10km以上 19 68 1022
19 20:00 南南東 5 10km以上 19 68 1022
19 19:30 南南東 6 10km以上 19 68 1021
19 19:00 南南東 6 10km以上 20 64 1021
19 18:30 南南東 6 10km以上 20 64 1021
19 18:00 南南東 8 10km以上 21 64 1021
19 17:30 6 10km以上 22 60 1021
19 17:00 6 10km以上 22 57 1021
19 16:30 8 10km以上 22 57 1021 弱い雨
19 16:00 南南西 7 10km以上 24 50 1021
19 15:30 南南西 7 10km以上 23 50 1020
19 15:00 南南西 7 10km以上 22 53 1020 弱いしゅう雨
RJTT 210517Z 19022KT 2500 R34L/2000U R22/2000N R16L/P2000N R23/0900V1400U SHRA BR FEW003 SCT010 BKN020 21/21 Q1000 RMK 1ST003 3CU010 5CU020 A2953
RJTT 210508Z 18020KT 2300 R34L/P2000N R22/P2000N R16L/2000N R23/0900V1400D SHRA BR FEW003 BKN008 BKN010 21/21 Q1000 RMK 1ST003 5ST008 6CU010 A2953
RJTT 210500Z 19017KT 2300 R34L/2000N R22/2000N R16L/2000N R23/1000V1900D SHRA BR FEW004 BKN007 BKN010 21/20 Q1000 TEMPO FEW003 BKN005 RMK 1ST004 5ST007 6CU010 A2954
RJTT 210450Z 18017KT 2300 R34L/P2000N R22/P2000N R16L/2000N R23/1500U SHRA BR FEW005 BKN010 BKN015 21/21 Q1000 RMK 1ST005 5CU010 6CU015 A2955 SEV TURB OBS AT 0438Z 5NM S KASGA 4000FT BY B738
RJTT 210434Z 17021KT 2000 R34L/1800N R22/1100VP2000U R16L/1400VP2000U R23/0800V1300D +SHRA BR FEW006 BKN012 BKN015 21/20 Q1000 RMK 1ST006 5CU012 6CU015 A2953
RJTT 210427Z 18020KT 2800 R34L/1800D R22/1100VP2000D R16L/1300VP2000D R23/0900V2000D +SHRA BR FEW006 BKN012 BKN015 21/20 Q1000 RMK 1ST006 5CU012 6CU015 A2953
RJTT 210413Z 17021G33KT 4000 R34L/P2000N R22/P2000N R16L/2000N R23/1800U SHRA BR FEW007 BKN012 BKN015 21/20 Q1000 RMK 1ST007 5CU012 6CU015 A2953
RJTT 210400Z 17021KT 4000 R34L/P2000N R22/P2000N R16L/P2000N R23/1900U SHRA BR FEW007 BKN012 BKN015 21/20 Q1000 TEMPO 18034G44KT 3000 +SHRA BR FEW005 BKN008
RJTT 210330Z 17023KT 4000 R34L/P2000N R22/P2000N R16L/P2000N R23/1400VP2000D SHRA BR FEW007 SCT013 BKN015 21/20 Q1000 TEMPO 18034G44KT 3000 +SHRA BR FEW005 BKN008
RJTT 210316Z 17022G33KT 4500 SHRA BR FEW007 BKN015 BKN020 21/20 Q1000 RMK 1ST007 5CU015 6CU020 A2954
RJTT 210307Z 17023G33KT 4500 -SHRA BR FEW007 BKN015 BKN020 21/20 Q1000 RMK 1ST007 5CU015 6CU020 A2954
RJTT 210230Z 17023KT 4500 SHRA BR FEW007 BKN015 BKN020 21/20 Q1001 TEMPO 18034G44KT 3000 +SHRA BR FEW005 BKN008
RJTT 210200Z 17026KT 4500 R34L/P2000N R22/P2000N R16L/P2000N R23/2000N SHRA BR FEW007 BKN015 BKN020 21/20 Q1001 TEMPO 18034G44KT 3000 +SHRA BR FEW005 BKN008 RMK 1ST007 5CU015 6CU020 A2956
RJTT 210130Z 17026KT 4500 SHRA BR FEW007 BKN015 BKN020 21/20 Q1001 TEMPO 18034G44KT 3000 +SHRA BR FEW005 BKN008 RMK 1ST007 5CU015 6CU020 A2956
RJTT 210112Z 17028KT 5000 -SHRA BR FEW007 BKN015 BKN020 21/20 Q1000 RMK 1ST007 5CU015 6CU020 A2955
RJTT 210100Z 17028KT 8000 -SHRA FEW007 BKN015 BKN020 21/20 Q1000 TEMPO 18034G44KT 3000 +SHRA BR FEW005 BKN008 RMK 1ST007 5CU015 6CU020 A2955
RJTT 210044Z 17026G37KT 6000 -SHRA FEW007 BKN015 BKN020 21/20 Q1001 RMK 1ST007 5CU015 6CU020 A2956
RJTT 210030Z 16026KT 4500 R34L/P2000N R22/P2000N R16L/P2000N R23/P2000N -SHRA BR FEW007 BKN014 BKN020 21/20 Q1001 TEMPO 18034G44KT 3000 +SHRA BR FEW005 BKN008 RMK 1ST007 5CU014 6CU020 A2957
RJTT 210013Z 16027KT 6000 -SHRA FEW007 BKN014 BKN020 21/20 Q1001 RMK 1ST007 5CU014 6CU020 A2956
RJTT 210000Z 16027KT 4000 R34L/P2000N R22/P2000N R16L/P2000N R23/P2000N -SHRA BR FEW007 BKN013 BKN020 21/20 Q1001 TEMPO 18034G44KT 3000 +SHRA BR FEW005 BKN008
RJTT 202330Z 16023KT 4000 R34L/P2000N R22/P2000N R16L/P2000N R23/P2000N SHRA BR FEW007 SCT010 BKN012 20/20 Q1002 TEMPO 18030G40KT 3000 +SHRA BR FEW005 BKN008 RMK 1ST007 4ST010 6CU012 A2959
RJTT 202300Z 16020KT 4500 R34L/P2000N R22/P2000N R16L/P2000N R23/1900N SHRA BR FEW007 SCT008 BKN012 20/19 Q1002 TEMPO 3000 +SHRA BR FEW005 BKN008
RJTT 202237Z 16019KT 3500 R34L/P2000N R22/P2000N R16L/P2000N R23/P2000N SHRA BR FEW009 BKN012 BKN020 20/19 Q1003 RMK 1ST009 5CU012 6CU020 A2962
RJTT 202200Z 14012KT 4000 SHRA BR FEW008 BKN012 BKN017 20/19 Q1003 TEMPO 3000 SHRA BR FEW005 BKN008 RMK 1ST008 5CU012 6CU017 A2964 8000SE
RJTT 202134Z 15013KT 2500 R34L/P2000N R22/2000N R16L/P2000N R23/P2000N +SHRA BR FEW009 SCT014 BKN017 20/19 Q1004 RMK 1ST009 4CU014 6CU017 A2965
RJTT 202116Z 15010KT 6000 SHRA BR FEW010 BKN014 BKN020 20/19 Q1004 RMK 1ST010 5CU014 6CU020 A2966 BR N-E
RJTT 202108Z 14010KT 6000 -SHRA BR FEW010 BKN014 BKN020 20/19 Q1004 RMK 1ST010 5CU014 6CU020 A2966 BR N
RJTT 202100Z 14010KT 6000 -SHRA FEW010 BKN015 BKN020 20/19 Q1004 TEMPO 3000 SHRA BR FEW005 BKN008
RJTT 202030Z 14012KT 4000 -SHRA BR FEW010 BKN016 BKN025 20/19 Q1004 TEMPO 3000 SHRA BR FEW005 BKN008 RMK 1ST010 5CU016 6CU025 A2967
RJTT 202000Z 14014KT 8000 -SHRA FEW008 BKN017 BKN025 20/19 Q1005 TEMPO 3000 SHRA BR FEW005 BKN008 RMK 1ST008 5CU017 6CU025 A2968
RJTT 201945Z 14015KT 5000 -SHRA BR FEW008 BKN017 BKN030 19/19 Q1005 RMK 1ST008 5CU017 6CU030 A2969
RJTT 201934Z 15016KT 4000 -SHRA BR FEW008 BKN017 BKN030 20/18 Q1005 RMK 1ST008 5CU017 6CU030 A2970
RJTT 201920Z 15018KT 6000 -SHRA FEW010 BKN017 BKN020 20/18 Q1006 RMK 1ST010 6CU017 7CU020 A2971
RJTT 201900Z 15017KT 9999 -SHRA FEW010 BKN017 BKN020 20/18 Q1006 TEMPO 3000 SHRA BR FEW005 BKN008 RMK 1ST010 5CU017 7CU020 A2972
RJTT 201830Z 15019KT 8000 VCSH FEW008 BKN017 BKN020 20/18 Q1006 TEMPO 3000 SHRA BR FEW005 BKN008
RJTT 201804Z 14016KT 4000 -SHRA BR FEW008 SCT013 BKN016 19/18 Q1006 RMK 1ST008 3CU013 6CU016 A2973
RJTT 201800Z 14015KT 7000 -SHRA FEW008 BKN016 BKN020 19/18 Q1006 TEMPO 4000 -SHRA BR FEW008 BKN012
RJTT 201730Z 14014KT 9999 -SHRA FEW005 SCT013 BKN030 19/19 Q1007 TEMPO 4000 -SHRA BR FEW008 BKN012 RMK 1ST005 4CU013 6CU030 A2976
RJTT 201700Z 14013KT 6000 -SHRA FEW005 SCT013 BKN020 19/18 Q1008 TEMPO 3000 SHRA BR FEW005 BKN008 RMK 1ST005 4CU013 6CU020 A2978
RJTT 201646Z 15014KT 5000 -SHRA BR FEW005 SCT008 BKN020 19/18 Q1008 RMK 1ST005 3ST008 6CU020 A2978
RJTT 201630Z 15014KT 4000 -SHRA BR FEW008 SCT015 BKN020 19/18 Q1009 TEMPO 3000 SHRA BR FEW008 BKN012
RJTT 201622Z 15015KT 4500 -SHRA BR FEW010 SCT020 BKN030 19/18 Q1009 RMK 1CU010 4CU020 6CU030 A2980
RJTT 201615Z 15016KT 6000 -SHRA BR FEW012 SCT020 BKN030 19/18 Q1009 RMK 1CU012 3CU020 6CU030 A2980 BR N
RJTT 201600Z 15013KT 9999 -SHRA FEW017 SCT020 BKN035 20/18 Q1009 TEMPO FEW008 BKN012 RMK 1CU017 3CU020 7SC035 A2981
RJTT 201530Z 15014KT 9999 -SHRA FEW018 SCT020 BKN040 20/17 Q1010 NOSIG RMK 1CU018 3CU020 5CU040 A2982
RJTT 201500Z 15012KT 9999 -SHRA FEW019 SCT040 BKN080 20/17 Q1010 NOSIG RMK 1CU019 3CU040 7AC080 A2984
RJTT 201430Z 16014KT 9999 SCT020 BKN060 20/17 Q1011 NOSIG RMK 3CU020 7SC060 A2985
RJTT 201400Z 16013KT 9999 -SHRA FEW020 BKN060 20/17 Q1011 NOSIG RMK 2CU020 7SC060 A2987
RJTT 201330Z 16015KT 9999 -SHRA FEW020 BKN050 BKN070 20/17 Q1011 NOSIG RMK 2CU020 5SC050 7AC070 A2988
RJTT 201300Z 15014KT 9999 -SHRA FEW020 BKN050 BKN070 20/17 Q1012 NOSIG RMK 2CU020 5SC050 7AC070 A2989
RJTT 201230Z 15013KT 9999 -SHRA FEW020 BKN050 20/17 Q1012 NOSIG RMK 2CU020 7SC050 A2991
RJTT 201200Z 14011KT 9999 -SHRA FEW020 BKN050 20/17 Q1013 NOSIG RMK 1CU020 7SC050 A2992
RJTT 201130Z 15013KT 9999 VCSH FEW020 BKN050 20/17 Q1013 NOSIG RMK 1CU020 7SC050 A2993
RJTT 201100Z 15011KT 9999 VCSH FEW020 BKN060 20/16 Q1013 NOSIG
RJTT 201030Z 17012KT 9999 FEW020 BKN050 20/16 Q1013 NOSIG RMK 1CU020 7SC050 A2994
RJTT 201000Z 17015KT 9999 FEW020 BKN050 21/16 Q1013 NOSIG RMK 1CU020 7SC050 A2994
RJTT 200930Z 17014KT 9999 FEW020 BKN050 21/16 Q1013 NOSIG RMK 1CU020 7SC050 A2994
RJTT 200900Z 17018KT 9999 -SHRA FEW020 SCT030 BKN060 21/16 Q1013 NOSIG RMK 1CU020 3CU030 5SC060 A2994
RJTT 200830Z 18013KT 9999 -SHRA FEW020 BKN030 BKN080 22/16 Q1013 NOSIG RMK 1CU020 5CU030 7AC080 A2994
RJTT 200800Z 17011KT 9999 FEW015 BKN030 BKN080 22/16 Q1013 NOSIG RMK 1CU015 6CU030 7AC080 A2994
RJTT 200730Z 18012KT 9999 FEW020 BKN030 BKN080 22/15 Q1014 NOSIG RMK 1CU020 5CU030 7AC080 A2994
RJTT 200700Z 18013KT 9999 FEW020 BKN030 BKN060 21/16 Q1014 NOSIG RMK 1CU020 5CU030 7SC060 A2995
RJTT 200630Z 17017KT 9999 -SHRA FEW020 BKN030 BKN060 21/16 Q1014 NOSIG RMK 1CU020 5CU030 7SC060 A2996
RJTT 200600Z 17014KT 140V210 9999 FEW020 SCT040 BKN080 23/15 Q1014 NOSIG RMK 1CU020 4CU040 7AC080 A2996
RJTT 200530Z 18010KT 9999 FEW020 SCT040 BKN080 22/16 Q1014 NOSIG RMK 1CU020 4CU040 7AC080 A2996
RJTT 200500Z 16010KT 9999 FEW020 SCT040 BKN080 23/16 Q1015 NOSIG RMK 1CU020 3CU040 6AC080 A2997
RJTT 200430Z 17013KT 9999 -SHRA FEW020 SCT040 BKN080 21/16 Q1015 NOSIG RMK 1CU020 4CU040 6AC080 A2999
RJTT 200400Z 19012KT 9999 FEW020 SCT040 BKN080 24/15 Q1015 NOSIG RMK 1CU020 3CU040 5AC080 A3000
RJTT 200330Z 17010KT 9999 FEW020 BKN080 24/15 Q1016 NOSIG RMK 1CU020 5AC080 A3001
RJTT 200300Z 16014KT 9999 FEW020 BKN060 22/13 Q1016 NOSIG RMK 1CU020 7SC060 A3003
RJTT 200242Z 16023KT 9999 FEW020 BKN050 21/14 Q1017 RMK 1CU020 7SC050 A3003
RJTT 200230Z 18013G26KT 130V230 9999 FEW020 SCT050 BKN070 23/14 Q1017 NOSIG RMK 1CU020 4SC050 7AC070 A3003
RJTT 200200Z 19011KT 9999 FEW020 BKN070 23/13 Q1017 NOSIG RMK 1CU020 5AC070 A3003
RJTT 200130Z 19010KT 120V210 9999 FEW020 SCT070 BKN/// 24/14 Q1017 NOSIG RMK 1CU020 3AC070 A3003
RJTT 200100Z 18009KT 9999 FEW020 SCT070 BKN/// 23/13 Q1017 NOSIG RMK 1CU020 3AC070 A3004
RJTT 200030Z 13009KT 9999 FEW020 BKN/// 23/14 Q1017 NOSIG
RJTT 200000Z 12008KT 9999 FEW020 BKN/// 22/16 Q1017 NOSIG RMK 1CU020 A3005
RJTT 192330Z 12008KT 9999 FEW020 SCT070 BKN/// 21/16 Q1017 NOSIG RMK 1CU020 3AC070 A3005
RJTT 192300Z 12009KT 9999 FEW020 BKN070 21/16 Q1018 NOSIG RMK 1CU020 6AC070 A3007
RJTT 192230Z 13006KT 9999 FEW020 SCT070 BKN/// 20/16 Q1018 NOSIG
RJTT 192200Z 13005KT 9999 FEW020 SCT070 BKN/// 19/15 Q1019 NOSIG RMK 1CU020 4AC070 A3010
RJTT 192130Z 14005KT 110V180 9999 FEW020 BKN/// 19/16 Q1019 NOSIG
RJTT 192100Z 11004KT 9999 FEW020 SCT070 BKN/// 19/16 Q1019 NOSIG RMK 1CU020 3AC070 A3011
RJTT 192030Z 13006KT 9999 FEW020 SCT070 BKN/// 18/16 Q1019 NOSIG RMK 1CU020 3AC070 A3011
RJTT 192000Z 12009KT 9999 FEW020 SCT040 BKN070 18/16 Q1019 NOSIG RMK 1CU020 3CU040 6AC070 A3010
RJTT 191930Z 12008KT 9999 FEW020 SCT040 BKN070 18/16 Q1019 NOSIG RMK 1CU020 3CU040 6AC070 A3010
RJTT 191900Z 13008KT 9999 FEW030 BKN070 18/16 Q1019 NOSIG RMK 1CU030 7AC070 A3010
RJTT 191830Z 12008KT 9999 FEW030 BKN070 18/16 Q1019 NOSIG RMK 1CU030 6AC070 A3011
RJTT 191800Z 12010KT 9999 FEW030 BKN070 19/16 Q1019 NOSIG RMK 1CU030 7AC070 A3011
RJTT 191730Z 16007KT 9999 FEW030 BKN070 18/15 Q1019 NOSIG RMK 1CU030 6AC070 A3011
RJTT 191700Z 17004KT 9999 FEW030 BKN060 17/14 Q1019 NOSIG RMK 1CU030 6SC060 A3012
RJTT 191630Z 13003KT 9999 FEW030 BKN060 18/15 Q1020 NOSIG RMK 1CU030 6SC060 A3013
RJTT 191600Z 15006KT 130V190 9999 FEW030 SCT060 18/14 Q1020 NOSIG RMK 1CU030 3SC060 A3013
RJTT 191530Z 15006KT 9999 FEW030 SCT060 18/14 Q1020 NOSIG RMK 1CU030 3SC060 A3014
RJTT 191500Z 14009KT 9999 FEW030 BKN060 BKN/// 18/15 Q1021 NOSIG RMK 1CU030 5SC060 A3015
RJTT 191430Z 14007KT 9999 FEW030 SCT060 BKN/// 18/15 Q1021 NOSIG
RJTT 191400Z 15008KT 9999 FEW030 BKN/// 18/14 Q1021 NOSIG RMK 1CU030 A3017
RJTT 191330Z 15006KT 9999 FEW030 BKN/// 17/14 Q1022 NOSIG
RJTT 191300Z 15007KT 9999 FEW030 BKN/// 18/14 Q1022 NOSIG RMK 1CU030 A3018
RJTT 191230Z 14007KT 9999 FEW030 BKN/// 19/15 Q1022 NOSIG
RJTT 191200Z 17009KT 9999 FEW030 BKN/// 19/14 Q1022 NOSIG RMK 1CU030 A3018
RJTT 191130Z 17008KT 9999 FEW030 BKN/// 19/13 Q1022 NOSIG
RJTT 191100Z 16010KT 9999 FEW030 SCT/// 19/13 Q1022 NOSIG RMK 1CU030 A3018
RJTT 191030Z 15012KT 9999 FEW030 SCT/// 19/13 Q1021 NOSIG RMK 1CU030 A3017
RJTT 191000Z 16011KT 9999 FEW030 SCT/// 20/13 Q1021 NOSIG RMK 1CU030 A3017
RJTT 190930Z 16012KT 9999 FEW030 BKN/// 20/13 Q1021 NOSIG RMK 1CU030 A3016
RJTT 190900Z 16016KT 9999 FEW030 SCT040 BKN/// 21/14 Q1021 NOSIG RMK 1CU030 3SC040 A3015
RJTT 190830Z 19011KT 9999 FEW030 SCT040 BKN/// 22/14 Q1021 NOSIG
RJTT 190800Z 17011KT 9999 FEW035 SCT050 BKN070 22/13 Q1021 NOSIG RMK 1CU035 4SC050 6AC070 A3016
RJTT 190730Z 19015KT 9999 -RA FEW035 SCT045 BKN070 22/13 Q1021 NOSIG RMK 1CU035 4SC045 6AC070 A3016
RJTT 190700Z 20013KT 9999 FEW035 SCT045 24/13 Q1021 NOSIG RMK 1CU035 3SC045 A3015
RJTT 190630Z 20013KT 9999 FEW035 SCT060 23/12 Q1020 NOSIG RMK 1CU035 4SC060 A3014
RJTT 190600Z 20014KT 9999 -SHRA FEW035 SCT045 BKN070 22/12 Q1020 NOSIG RMK 1CU035 3CU045 6AC070 A3014